sensor_id;sensor_type;location;lat;lon;timestamp;P1;durP1;ratioP1;P2;durP2;ratioP2
19969;SDS011;10146;47.754;9.566;2023-09-08T00:00:08;7.32;;;6.72;;
19969;SDS011;10146;47.754;9.566;2023-09-08T00:02:34;8.13;;;7.32;;
19969;SDS011;10146;47.754;9.566;2023-09-08T00:04:59;7.97;;;7.25;;
19969;SDS011;10146;47.754;9.566;2023-09-08T00:07:25;7.65;;;6.95;;
19969;SDS011;10146;47.754;9.566;2023-09-08T00:09:51;9.00;;;7.10;;
19969;SDS011;10146;47.754;9.566;2023-09-08T00:12:16;7.65;;;7.00;;
19969;SDS011;10146;47.754;9.566;2023-09-08T00:14:42;7.82;;;7.10;;
19969;SDS011;10146;47.754;9.566;2023-09-08T00:17:08;8.07;;;6.80;;
19969;SDS011;10146;47.754;9.566;2023-09-08T00:19:33;7.60;;;6.90;;
19969;SDS011;10146;47.754;9.566;2023-09-08T00:21:59;9.02;;;8.05;;
19969;SDS011;10146;47.754;9.566;2023-09-08T00:24:25;8.00;;;7.30;;
19969;SDS011;10146;47.754;9.566;2023-09-08T00:26:51;8.23;;;7.40;;
19969;SDS011;10146;47.754;9.566;2023-09-08T00:29:17;8.25;;;7.45;;
19969;SDS011;10146;47.754;9.566;2023-09-08T00:31:42;7.82;;;7.03;;
19969;SDS011;10146;47.754;9.566;2023-09-08T00:34:08;8.75;;;7.93;;
19969;SDS011;10146;47.754;9.566;2023-09-08T00:36:34;8.13;;;7.43;;
19969;SDS011;10146;47.754;9.566;2023-09-08T00:38:59;8.93;;;7.93;;
19969;SDS011;10146;47.754;9.566;2023-09-08T00:41:25;8.80;;;8.00;;
19969;SDS011;10146;47.754;9.566;2023-09-08T00:43:50;7.95;;;7.03;;
19969;SDS011;10146;47.754;9.566;2023-09-08T00:46:16;8.00;;;7.22;;
19969;SDS011;10146;47.754;9.566;2023-09-08T00:48:42;8.02;;;7.30;;
19969;SDS011;10146;47.754;9.566;2023-09-08T00:51:08;7.93;;;7.18;;
19969;SDS011;10146;47.754;9.566;2023-09-08T00:53:35;10.23;;;8.07;;
19969;SDS011;10146;47.754;9.566;2023-09-08T00:56:01;8.50;;;7.70;;
19969;SDS011;10146;47.754;9.566;2023-09-08T00:58:28;8.57;;;7.78;;
19969;SDS011;10146;47.754;9.566;2023-09-08T01:00:54;9.80;;;7.85;;
19969;SDS011;10146;47.754;9.566;2023-09-08T01:03:22;8.38;;;7.57;;
19969;SDS011;10146;47.754;9.566;2023-09-08T01:05:48;9.10;;;7.88;;
19969;SDS011;10146;47.754;9.566;2023-09-08T01:08:14;8.30;;;7.50;;
19969;SDS011;10146;47.754;9.566;2023-09-08T01:10:41;10.00;;;8.23;;
19969;SDS011;10146;47.754;9.566;2023-09-08T01:13:07;9.07;;;8.05;;
19969;SDS011;10146;47.754;9.566;2023-09-08T01:15:33;8.70;;;7.85;;
19969;SDS011;10146;47.754;9.566;2023-09-08T01:17:58;8.77;;;7.97;;
19969;SDS011;10146;47.754;9.566;2023-09-08T01:20:25;8.95;;;8.10;;
19969;SDS011;10146;47.754;9.566;2023-09-08T01:26:09;8.68;;;7.80;;
19969;SDS011;10146;47.754;9.566;2023-09-08T01:28:41;8.98;;;8.07;;
19969;SDS011;10146;47.754;9.566;2023-09-08T01:31:07;9.00;;;8.13;;
19969;SDS011;10146;47.754;9.566;2023-09-08T01:33:33;9.02;;;7.65;;
19969;SDS011;10146;47.754;9.566;2023-09-08T01:35:59;7.72;;;6.93;;
19969;SDS011;10146;47.754;9.566;2023-09-08T01:38:25;9.80;;;8.02;;
19969;SDS011;10146;47.754;9.566;2023-09-08T01:40:50;8.25;;;7.55;;
19969;SDS011;10146;47.754;9.566;2023-09-08T01:43:16;8.57;;;7.60;;
19969;SDS011;10146;47.754;9.566;2023-09-08T01:45:41;8.48;;;7.72;;
19969;SDS011;10146;47.754;9.566;2023-09-08T01:48:07;9.30;;;8.40;;
19969;SDS011;10146;47.754;9.566;2023-09-08T01:50:32;8.90;;;8.00;;
19969;SDS011;10146;47.754;9.566;2023-09-08T01:52:58;9.60;;;8.25;;
19969;SDS011;10146;47.754;9.566;2023-09-08T01:55:24;8.75;;;7.93;;
19969;SDS011;10146;47.754;9.566;2023-09-08T01:57:49;8.88;;;8.10;;
19969;SDS011;10146;47.754;9.566;2023-09-08T02:00:16;10.88;;;8.18;;
19969;SDS011;10146;47.754;9.566;2023-09-08T02:02:41;9.18;;;8.38;;
19969;SDS011;10146;47.754;9.566;2023-09-08T02:05:07;9.30;;;8.40;;
19969;SDS011;10146;47.754;9.566;2023-09-08T02:07:33;8.85;;;8.05;;
19969;SDS011;10146;47.754;9.566;2023-09-08T02:09:59;9.13;;;8.20;;
19969;SDS011;10146;47.754;9.566;2023-09-08T02:12:25;9.50;;;8.70;;
19969;SDS011;10146;47.754;9.566;2023-09-08T02:14:50;11.20;;;9.93;;
19969;SDS011;10146;47.754;9.566;2023-09-08T02:17:17;10.27;;;9.27;;
19969;SDS011;10146;47.754;9.566;2023-09-08T02:19:42;11.43;;;8.77;;
19969;SDS011;10146;47.754;9.566;2023-09-08T02:22:08;10.07;;;9.05;;
19969;SDS011;10146;47.754;9.566;2023-09-08T02:24:34;11.18;;;10.18;;
19969;SDS011;10146;47.754;9.566;2023-09-08T02:26:59;8.75;;;7.90;;
19969;SDS011;10146;47.754;9.566;2023-09-08T02:29:25;10.82;;;9.82;;
19969;SDS011;10146;47.754;9.566;2023-09-08T02:31:51;10.20;;;9.20;;
19969;SDS011;10146;47.754;9.566;2023-09-08T02:34:16;11.20;;;10.07;;
19969;SDS011;10146;47.754;9.566;2023-09-08T02:36:42;9.90;;;9.00;;
19969;SDS011;10146;47.754;9.566;2023-09-08T02:39:08;9.45;;;8.65;;
19969;SDS011;10146;47.754;9.566;2023-09-08T02:41:33;10.65;;;9.57;;
19969;SDS011;10146;47.754;9.566;2023-09-08T02:43:59;11.80;;;10.65;;
19969;SDS011;10146;47.754;9.566;2023-09-08T02:46:25;10.75;;;9.77;;
19969;SDS011;10146;47.754;9.566;2023-09-08T02:48:50;11.02;;;9.82;;
19969;SDS011;10146;47.754;9.566;2023-09-08T02:51:17;10.65;;;9.65;;
19969;SDS011;10146;47.754;9.566;2023-09-08T02:53:43;10.65;;;9.68;;
19969;SDS011;10146;47.754;9.566;2023-09-08T02:56:08;11.95;;;10.77;;
19969;SDS011;10146;47.754;9.566;2023-09-08T02:58:34;11.25;;;10.05;;
19969;SDS011;10146;47.754;9.566;2023-09-08T03:01:10;11.30;;;10.20;;
19969;SDS011;10146;47.754;9.566;2023-09-08T03:03:38;10.45;;;9.43;;
19969;SDS011;10146;47.754;9.566;2023-09-08T03:06:04;11.32;;;9.80;;
19969;SDS011;10146;47.754;9.566;2023-09-08T03:08:29;10.18;;;9.25;;
19969;SDS011;10146;47.754;9.566;2023-09-08T03:10:56;10.30;;;9.30;;
19969;SDS011;10146;47.754;9.566;2023-09-08T03:13:22;11.25;;;9.32;;
19969;SDS011;10146;47.754;9.566;2023-09-08T03:15:48;10.00;;;9.00;;
19969;SDS011;10146;47.754;9.566;2023-09-08T03:18:13;10.50;;;9.40;;
19969;SDS011;10146;47.754;9.566;2023-09-08T03:20:39;10.55;;;9.60;;
19969;SDS011;10146;47.754;9.566;2023-09-08T03:23:05;12.00;;;9.38;;
19969;SDS011;10146;47.754;9.566;2023-09-08T03:25:31;10.32;;;9.43;;
19969;SDS011;10146;47.754;9.566;2023-09-08T03:27:56;10.02;;;9.13;;
19969;SDS011;10146;47.754;9.566;2023-09-08T03:30:22;10.07;;;9.18;;
19969;SDS011;10146;47.754;9.566;2023-09-08T03:32:47;10.90;;;9.93;;
19969;SDS011;10146;47.754;9.566;2023-09-08T03:35:13;11.55;;;10.45;;
19969;SDS011;10146;47.754;9.566;2023-09-08T03:37:38;11.88;;;10.00;;
19969;SDS011;10146;47.754;9.566;2023-09-08T03:40:04;10.73;;;9.73;;
19969;SDS011;10146;47.754;9.566;2023-09-08T03:42:31;9.38;;;8.48;;
19969;SDS011;10146;47.754;9.566;2023-09-08T03:44:57;10.45;;;9.43;;
19969;SDS011;10146;47.754;9.566;2023-09-08T03:47:22;10.25;;;9.35;;
19969;SDS011;10146;47.754;9.566;2023-09-08T03:49:48;10.23;;;9.15;;
19969;SDS011;10146;47.754;9.566;2023-09-08T03:52:13;12.18;;;10.60;;
19969;SDS011;10146;47.754;9.566;2023-09-08T03:54:39;12.30;;;11.10;;
19969;SDS011;10146;47.754;9.566;2023-09-08T03:57:05;11.23;;;10.23;;
19969;SDS011;10146;47.754;9.566;2023-09-08T03:59:30;11.40;;;10.50;;
19969;SDS011;10146;47.754;9.566;2023-09-08T04:01:56;11.52;;;10.43;;
19969;SDS011;10146;47.754;9.566;2023-09-08T04:04:22;12.45;;;11.25;;
19969;SDS011;10146;47.754;9.566;2023-09-08T04:06:47;12.05;;;10.80;;
19969;SDS011;10146;47.754;9.566;2023-09-08T04:09:13;12.02;;;10.98;;
19969;SDS011;10146;47.754;9.566;2023-09-08T04:11:39;12.10;;;11.00;;
19969;SDS011;10146;47.754;9.566;2023-09-08T04:14:05;13.32;;;11.93;;
19969;SDS011;10146;47.754;9.566;2023-09-08T04:16:30;12.77;;;11.45;;
19969;SDS011;10146;47.754;9.566;2023-09-08T04:18:56;13.63;;;11.77;;
19969;SDS011;10146;47.754;9.566;2023-09-08T04:21:21;11.85;;;10.65;;
19969;SDS011;10146;47.754;9.566;2023-09-08T04:23:47;15.25;;;13.65;;
19969;SDS011;10146;47.754;9.566;2023-09-08T04:26:12;14.55;;;13.13;;
19969;SDS011;10146;47.754;9.566;2023-09-08T04:28:38;13.95;;;12.55;;
19969;SDS011;10146;47.754;9.566;2023-09-08T04:31:04;12.77;;;11.57;;
19969;SDS011;10146;47.754;9.566;2023-09-08T04:33:29;14.20;;;12.90;;
19969;SDS011;10146;47.754;9.566;2023-09-08T04:35:55;13.88;;;12.55;;
19969;SDS011;10146;47.754;9.566;2023-09-08T04:38:21;13.90;;;12.50;;
19969;SDS011;10146;47.754;9.566;2023-09-08T04:40:46;14.82;;;13.32;;
19969;SDS011;10146;47.754;9.566;2023-09-08T04:43:12;13.45;;;12.10;;
19969;SDS011;10146;47.754;9.566;2023-09-08T04:45:37;13.95;;;12.48;;
19969;SDS011;10146;47.754;9.566;2023-09-08T04:48:04;12.77;;;11.60;;
19969;SDS011;10146;47.754;9.566;2023-09-08T04:50:30;13.07;;;11.63;;
19969;SDS011;10146;47.754;9.566;2023-09-08T04:52:55;13.10;;;11.82;;
19969;SDS011;10146;47.754;9.566;2023-09-08T04:55:21;13.57;;;12.38;;
19969;SDS011;10146;47.754;9.566;2023-09-08T04:57:47;15.00;;;13.35;;
19969;SDS011;10146;47.754;9.566;2023-09-08T05:00:12;12.77;;;11.57;;
19969;SDS011;10146;47.754;9.566;2023-09-08T05:02:38;14.00;;;12.60;;
19969;SDS011;10146;47.754;9.566;2023-09-08T05:05:04;13.00;;;11.65;;
19969;SDS011;10146;47.754;9.566;2023-09-08T05:07:29;13.40;;;11.80;;
19969;SDS011;10146;47.754;9.566;2023-09-08T05:09:55;15.25;;;13.68;;
19969;SDS011;10146;47.754;9.566;2023-09-08T05:12:21;11.98;;;10.88;;
19969;SDS011;10146;47.754;9.566;2023-09-08T05:14:46;16.10;;;14.38;;
19969;SDS011;10146;47.754;9.566;2023-09-08T05:17:12;18.60;;;13.07;;
19969;SDS011;10146;47.754;9.566;2023-09-08T05:19:38;14.02;;;12.68;;
19969;SDS011;10146;47.754;9.566;2023-09-08T05:22:04;13.05;;;11.73;;
19969;SDS011;10146;47.754;9.566;2023-09-08T05:24:32;15.18;;;13.60;;
19969;SDS011;10146;47.754;9.566;2023-09-08T05:26:57;14.23;;;12.82;;
19969;SDS011;10146;47.754;9.566;2023-09-08T05:29:23;13.27;;;12.02;;
19969;SDS011;10146;47.754;9.566;2023-09-08T05:31:49;13.73;;;12.43;;
19969;SDS011;10146;47.754;9.566;2023-09-08T05:34:14;13.15;;;11.50;;
19969;SDS011;10146;47.754;9.566;2023-09-08T05:36:40;12.70;;;11.23;;
19969;SDS011;10146;47.754;9.566;2023-09-08T05:39:07;13.88;;;12.57;;
19969;SDS011;10146;47.754;9.566;2023-09-08T05:41:33;13.50;;;11.48;;
19969;SDS011;10146;47.754;9.566;2023-09-08T05:43:59;15.63;;;13.38;;
19969;SDS011;10146;47.754;9.566;2023-09-08T05:46:25;15.00;;;13.45;;
19969;SDS011;10146;47.754;9.566;2023-09-08T05:48:51;14.48;;;11.50;;
19969;SDS011;10146;47.754;9.566;2023-09-08T05:51:17;15.75;;;13.13;;
19969;SDS011;10146;47.754;9.566;2023-09-08T05:53:42;12.98;;;11.60;;
19969;SDS011;10146;47.754;9.566;2023-09-08T05:56:08;14.95;;;13.45;;
19969;SDS011;10146;47.754;9.566;2023-09-08T05:58:34;13.57;;;12.38;;
19969;SDS011;10146;47.754;9.566;2023-09-08T06:01:01;15.02;;;12.25;;
19969;SDS011;10146;47.754;9.566;2023-09-08T06:03:27;14.60;;;12.68;;
19969;SDS011;10146;47.754;9.566;2023-09-08T06:05:53;12.02;;;10.75;;
19969;SDS011;10146;47.754;9.566;2023-09-08T06:08:19;11.80;;;10.57;;
19969;SDS011;10146;47.754;9.566;2023-09-08T06:10:44;12.40;;;11.13;;
19969;SDS011;10146;47.754;9.566;2023-09-08T06:13:10;12.13;;;10.93;;
19969;SDS011;10146;47.754;9.566;2023-09-08T06:15:35;13.27;;;11.18;;
19969;SDS011;10146;47.754;9.566;2023-09-08T06:18:01;13.07;;;11.77;;
19969;SDS011;10146;47.754;9.566;2023-09-08T06:20:27;12.00;;;10.77;;
19969;SDS011;10146;47.754;9.566;2023-09-08T06:22:53;14.02;;;11.18;;
19969;SDS011;10146;47.754;9.566;2023-09-08T06:25:18;11.73;;;10.63;;
19969;SDS011;10146;47.754;9.566;2023-09-08T06:27:44;13.07;;;11.73;;
19969;SDS011;10146;47.754;9.566;2023-09-08T06:30:10;12.40;;;11.07;;
19969;SDS011;10146;47.754;9.566;2023-09-08T06:32:38;13.45;;;12.05;;
19969;SDS011;10146;47.754;9.566;2023-09-08T06:35:04;13.52;;;12.13;;
19969;SDS011;10146;47.754;9.566;2023-09-08T06:37:34;15.27;;;13.68;;
19969;SDS011;10146;47.754;9.566;2023-09-08T06:40:01;15.07;;;13.55;;
19969;SDS011;10146;47.754;9.566;2023-09-08T06:42:26;14.13;;;12.52;;
19969;SDS011;10146;47.754;9.566;2023-09-08T06:44:52;11.90;;;10.80;;
19969;SDS011;10146;47.754;9.566;2023-09-08T06:47:18;14.57;;;13.07;;
19969;SDS011;10146;47.754;9.566;2023-09-08T06:49:43;15.38;;;13.88;;
19969;SDS011;10146;47.754;9.566;2023-09-08T06:52:09;14.95;;;13.45;;
19969;SDS011;10146;47.754;9.566;2023-09-08T06:54:34;15.40;;;13.57;;
19969;SDS011;10146;47.754;9.566;2023-09-08T06:57:00;14.95;;;13.40;;
19969;SDS011;10146;47.754;9.566;2023-09-08T06:59:25;14.90;;;13.43;;
19969;SDS011;10146;47.754;9.566;2023-09-08T07:01:51;15.32;;;13.73;;
19969;SDS011;10146;47.754;9.566;2023-09-08T07:04:17;16.30;;;14.05;;
19969;SDS011;10146;47.754;9.566;2023-09-08T07:06:42;15.75;;;13.80;;
19969;SDS011;10146;47.754;9.566;2023-09-08T07:09:09;15.57;;;13.60;;
19969;SDS011;10146;47.754;9.566;2023-09-08T07:11:35;16.20;;;14.27;;
19969;SDS011;10146;47.754;9.566;2023-09-08T07:14:00;14.68;;;13.27;;
19969;SDS011;10146;47.754;9.566;2023-09-08T07:16:27;16.88;;;13.63;;
19969;SDS011;10146;47.754;9.566;2023-09-08T07:18:53;16.70;;;13.82;;
19969;SDS011;10146;47.754;9.566;2023-09-08T07:21:18;18.75;;;14.07;;
19969;SDS011;10146;47.754;9.566;2023-09-08T07:23:44;18.70;;;13.23;;
19969;SDS011;10146;47.754;9.566;2023-09-08T07:26:10;18.10;;;13.25;;
19969;SDS011;10146;47.754;9.566;2023-09-08T07:28:36;18.65;;;14.88;;
19969;SDS011;10146;47.754;9.566;2023-09-08T07:31:02;16.13;;;13.55;;
19969;SDS011;10146;47.754;9.566;2023-09-08T07:33:28;15.95;;;13.38;;
19969;SDS011;10146;47.754;9.566;2023-09-08T07:35:54;18.98;;;13.77;;
19969;SDS011;10146;47.754;9.566;2023-09-08T07:38:19;16.65;;;13.68;;
19969;SDS011;10146;47.754;9.566;2023-09-08T07:40:45;18.95;;;13.38;;
19969;SDS011;10146;47.754;9.566;2023-09-08T07:43:10;17.55;;;12.95;;
19969;SDS011;10146;47.754;9.566;2023-09-08T07:45:36;15.85;;;13.35;;
19969;SDS011;10146;47.754;9.566;2023-09-08T07:48:02;17.25;;;13.80;;
19969;SDS011;10146;47.754;9.566;2023-09-08T07:50:28;16.35;;;12.77;;
19969;SDS011;10146;47.754;9.566;2023-09-08T07:52:55;15.85;;;13.30;;
19969;SDS011;10146;47.754;9.566;2023-09-08T07:55:22;15.93;;;12.95;;
19969;SDS011;10146;47.754;9.566;2023-09-08T07:57:48;13.63;;;12.07;;
19969;SDS011;10146;47.754;9.566;2023-09-08T08:00:16;13.48;;;12.07;;
19969;SDS011;10146;47.754;9.566;2023-09-08T08:02:44;13.63;;;12.07;;
19969;SDS011;10146;47.754;9.566;2023-09-08T08:05:11;13.50;;;12.00;;
19969;SDS011;10146;47.754;9.566;2023-09-08T08:07:38;15.00;;;13.05;;
19969;SDS011;10146;47.754;9.566;2023-09-08T08:10:04;16.13;;;12.60;;
19969;SDS011;10146;47.754;9.566;2023-09-08T08:12:34;14.98;;;13.13;;
19969;SDS011;10146;47.754;9.566;2023-09-08T08:15:00;13.50;;;12.10;;
19969;SDS011;10146;47.754;9.566;2023-09-08T08:17:26;14.38;;;12.10;;
19969;SDS011;10146;47.754;9.566;2023-09-08T08:19:53;14.50;;;12.27;;
19969;SDS011;10146;47.754;9.566;2023-09-08T08:22:19;14.27;;;12.77;;
19969;SDS011;10146;47.754;9.566;2023-09-08T08:24:45;17.48;;;13.32;;
19969;SDS011;10146;47.754;9.566;2023-09-08T08:27:11;16.70;;;14.15;;
19969;SDS011;10146;47.754;9.566;2023-09-08T08:29:36;17.48;;;15.77;;
19969;SDS011;10146;47.754;9.566;2023-09-08T08:32:03;15.52;;;13.75;;
19969;SDS011;10146;47.754;9.566;2023-09-08T08:34:29;19.38;;;15.15;;
19969;SDS011;10146;47.754;9.566;2023-09-08T08:36:55;18.52;;;15.85;;
19969;SDS011;10146;47.754;9.566;2023-09-08T08:39:20;18.77;;;15.05;;
19969;SDS011;10146;47.754;9.566;2023-09-08T08:41:46;22.00;;;16.42;;
19969;SDS011;10146;47.754;9.566;2023-09-08T08:44:11;18.75;;;16.88;;
19969;SDS011;10146;47.754;9.566;2023-09-08T08:46:40;18.85;;;17.00;;
19969;SDS011;10146;47.754;9.566;2023-09-08T08:49:07;20.80;;;18.65;;
19969;SDS011;10146;47.754;9.566;2023-09-08T08:51:34;16.80;;;15.13;;
19969;SDS011;10146;47.754;9.566;2023-09-08T08:54:01;15.05;;;13.60;;
19969;SDS011;10146;47.754;9.566;2023-09-08T08:56:32;15.18;;;13.00;;
19969;SDS011;10146;47.754;9.566;2023-09-08T08:59:01;13.85;;;12.40;;
19969;SDS011;10146;47.754;9.566;2023-09-08T09:01:27;16.92;;;14.05;;
19969;SDS011;10146;47.754;9.566;2023-09-08T09:03:54;13.82;;;12.43;;
19969;SDS011;10146;47.754;9.566;2023-09-08T09:06:21;13.68;;;11.80;;
19969;SDS011;10146;47.754;9.566;2023-09-08T09:08:47;13.52;;;12.27;;
19969;SDS011;10146;47.754;9.566;2023-09-08T09:11:12;13.73;;;12.27;;
19969;SDS011;10146;47.754;9.566;2023-09-08T09:13:38;15.13;;;13.57;;
19969;SDS011;10146;47.754;9.566;2023-09-08T09:16:04;15.05;;;13.55;;
19969;SDS011;10146;47.754;9.566;2023-09-08T09:18:33;14.00;;;12.50;;
19969;SDS011;10146;47.754;9.566;2023-09-08T09:20:59;14.57;;;13.07;;
19969;SDS011;10146;47.754;9.566;2023-09-08T09:23:29;14.13;;;12.57;;
19969;SDS011;10146;47.754;9.566;2023-09-08T09:25:56;13.68;;;12.43;;
19969;SDS011;10146;47.754;9.566;2023-09-08T09:28:23;16.33;;;11.52;;
19969;SDS011;10146;47.754;9.566;2023-09-08T09:30:50;12.68;;;11.52;;
19969;SDS011;10146;47.754;9.566;2023-09-08T09:33:17;12.55;;;11.25;;
19969;SDS011;10146;47.754;9.566;2023-09-08T09:35:44;12.77;;;11.48;;
19969;SDS011;10146;47.754;9.566;2023-09-08T09:38:14;11.52;;;10.40;;
19969;SDS011;10146;47.754;9.566;2023-09-08T09:40:41;11.88;;;10.38;;
19969;SDS011;10146;47.754;9.566;2023-09-08T09:43:07;12.60;;;11.32;;
19969;SDS011;10146;47.754;9.566;2023-09-08T09:45:33;12.73;;;10.82;;
19969;SDS011;10146;47.754;9.566;2023-09-08T09:48:00;12.82;;;11.50;;
19969;SDS011;10146;47.754;9.566;2023-09-08T09:50:31;11.95;;;10.90;;
19969;SDS011;10146;47.754;9.566;2023-09-08T09:53:01;12.52;;;11.20;;
19969;SDS011;10146;47.754;9.566;2023-09-08T09:55:32;10.98;;;9.25;;
19969;SDS011;10146;47.754;9.566;2023-09-08T09:57:58;11.73;;;9.38;;
19969;SDS011;10146;47.754;9.566;2023-09-08T10:00:27;11.73;;;10.52;;
19969;SDS011;10146;47.754;9.566;2023-09-08T10:02:53;11.82;;;10.35;;
19969;SDS011;10146;47.754;9.566;2023-09-08T10:05:20;11.57;;;10.48;;
19969;SDS011;10146;47.754;9.566;2023-09-08T10:07:46;11.30;;;10.20;;
19969;SDS011;10146;47.754;9.566;2023-09-08T10:10:13;11.32;;;10.32;;
19969;SDS011;10146;47.754;9.566;2023-09-08T10:12:39;10.25;;;9.25;;
19969;SDS011;10146;47.754;9.566;2023-09-08T10:15:08;10.48;;;9.52;;
19969;SDS011;10146;47.754;9.566;2023-09-08T10:17:35;11.82;;;10.52;;
19969;SDS011;10146;47.754;9.566;2023-09-08T10:20:02;12.35;;;11.10;;
19969;SDS011;10146;47.754;9.566;2023-09-08T10:22:36;11.35;;;10.32;;
19969;SDS011;10146;47.754;9.566;2023-09-08T10:25:04;10.68;;;9.70;;
19969;SDS011;10146;47.754;9.566;2023-09-08T10:27:32;11.50;;;10.30;;
19969;SDS011;10146;47.754;9.566;2023-09-08T10:30:01;11.40;;;10.23;;
19969;SDS011;10146;47.754;9.566;2023-09-08T10:32:29;11.18;;;9.98;;
19969;SDS011;10146;47.754;9.566;2023-09-08T10:34:56;10.52;;;9.52;;
19969;SDS011;10146;47.754;9.566;2023-09-08T10:37:25;10.90;;;10.00;;
19969;SDS011;10146;47.754;9.566;2023-09-08T10:39:54;10.75;;;9.65;;
19969;SDS011;10146;47.754;9.566;2023-09-08T10:43:07;10.90;;;9.10;;
19969;SDS011;10146;47.754;9.566;2023-09-08T10:45:33;10.10;;;9.15;;
19969;SDS011;10146;47.754;9.566;2023-09-08T10:47:59;10.23;;;9.32;;
19969;SDS011;10146;47.754;9.566;2023-09-08T10:50:26;17.85;;;12.23;;
19969;SDS011;10146;47.754;9.566;2023-09-08T10:53:05;10.63;;;9.73;;
19969;SDS011;10146;47.754;9.566;2023-09-08T10:55:42;29.42;;;14.60;;
19969;SDS011;10146;47.754;9.566;2023-09-08T10:58:17;9.75;;;8.88;;
19969;SDS011;10146;47.754;9.566;2023-09-08T11:00:50;9.95;;;9.05;;
19969;SDS011;10146;47.754;9.566;2023-09-08T11:06:07;10.18;;;9.05;;
19969;SDS011;10146;47.754;9.566;2023-09-08T11:08:34;11.18;;;9.75;;
19969;SDS011;10146;47.754;9.566;2023-09-08T11:11:02;9.60;;;8.60;;
19969;SDS011;10146;47.754;9.566;2023-09-08T11:13:28;10.07;;;9.18;;
19969;SDS011;10146;47.754;9.566;2023-09-08T11:15:54;10.88;;;9.38;;
19969;SDS011;10146;47.754;9.566;2023-09-08T11:18:26;9.52;;;8.63;;
19969;SDS011;10146;47.754;9.566;2023-09-08T11:20:53;9.32;;;8.43;;
19969;SDS011;10146;47.754;9.566;2023-09-08T11:23:20;8.43;;;7.72;;
19969;SDS011;10146;47.754;9.566;2023-09-08T11:25:46;9.68;;;8.77;;
19969;SDS011;10146;47.754;9.566;2023-09-08T11:28:12;8.50;;;7.80;;
19969;SDS011;10146;47.754;9.566;2023-09-08T11:30:39;8.50;;;7.70;;
19969;SDS011;10146;47.754;9.566;2023-09-08T11:33:13;8.60;;;7.70;;
19969;SDS011;10146;47.754;9.566;2023-09-08T11:35:46;8.38;;;7.68;;
19969;SDS011;10146;47.754;9.566;2023-09-08T11:38:12;8.57;;;7.70;;
19969;SDS011;10146;47.754;9.566;2023-09-08T11:40:38;8.70;;;7.90;;
19969;SDS011;10146;47.754;9.566;2023-09-08T11:43:07;8.63;;;7.53;;
19969;SDS011;10146;47.754;9.566;2023-09-08T11:45:36;9.43;;;7.97;;
19969;SDS011;10146;47.754;9.566;2023-09-08T11:48:03;8.68;;;7.88;;
19969;SDS011;10146;47.754;9.566;2023-09-08T11:50:29;8.32;;;7.43;;
19969;SDS011;10146;47.754;9.566;2023-09-08T11:52:56;8.40;;;7.70;;
19969;SDS011;10146;47.754;9.566;2023-09-08T11:55:24;7.88;;;7.20;;
19969;SDS011;10146;47.754;9.566;2023-09-08T11:57:52;7.88;;;7.07;;
19969;SDS011;10146;47.754;9.566;2023-09-08T12:00:26;9.55;;;7.43;;
19969;SDS011;10146;47.754;9.566;2023-09-08T12:02:52;7.47;;;6.47;;
19969;SDS011;10146;47.754;9.566;2023-09-08T12:05:25;7.75;;;7.05;;
19969;SDS011;10146;47.754;9.566;2023-09-08T12:07:53;8.45;;;7.45;;
19969;SDS011;10146;47.754;9.566;2023-09-08T12:10:20;7.95;;;6.60;;
19969;SDS011;10146;47.754;9.566;2023-09-08T12:12:48;9.07;;;7.55;;
19969;SDS011;10146;47.754;9.566;2023-09-08T12:15:34;8.10;;;7.40;;
19969;SDS011;10146;47.754;9.566;2023-09-08T12:18:01;8.15;;;7.38;;
19969;SDS011;10146;47.754;9.566;2023-09-08T12:20:28;8.07;;;7.38;;
19969;SDS011;10146;47.754;9.566;2023-09-08T12:22:56;7.85;;;6.82;;
19969;SDS011;10146;47.754;9.566;2023-09-08T12:25:28;8.43;;;7.63;;
19969;SDS011;10146;47.754;9.566;2023-09-08T12:27:56;7.63;;;7.00;;
19969;SDS011;10146;47.754;9.566;2023-09-08T12:30:22;7.43;;;6.80;;
19969;SDS011;10146;47.754;9.566;2023-09-08T12:32:55;7.90;;;6.38;;
19969;SDS011;10146;47.754;9.566;2023-09-08T12:35:22;7.45;;;6.78;;
19969;SDS011;10146;47.754;9.566;2023-09-08T12:38:04;7.28;;;6.68;;
19969;SDS011;10146;47.754;9.566;2023-09-08T12:40:33;8.45;;;7.80;;
19969;SDS011;10146;47.754;9.566;2023-09-08T12:43:00;8.18;;;7.47;;
19969;SDS011;10146;47.754;9.566;2023-09-08T12:45:26;8.02;;;7.18;;
19969;SDS011;10146;47.754;9.566;2023-09-08T12:47:53;7.32;;;6.80;;
19969;SDS011;10146;47.754;9.566;2023-09-08T12:50:23;7.95;;;7.20;;
19969;SDS011;10146;47.754;9.566;2023-09-08T12:52:49;7.68;;;6.97;;
19969;SDS011;10146;47.754;9.566;2023-09-08T12:55:14;9.43;;;7.40;;
19969;SDS011;10146;47.754;9.566;2023-09-08T12:57:40;7.63;;;6.65;;
19969;SDS011;10146;47.754;9.566;2023-09-08T13:00:06;8.15;;;6.50;;
19969;SDS011;10146;47.754;9.566;2023-09-08T13:02:32;7.28;;;6.57;;
19969;SDS011;10146;47.754;9.566;2023-09-08T13:04:58;7.47;;;6.88;;
19969;SDS011;10146;47.754;9.566;2023-09-08T13:07:24;7.75;;;6.80;;
19969;SDS011;10146;47.754;9.566;2023-09-08T13:09:49;7.43;;;6.82;;
19969;SDS011;10146;47.754;9.566;2023-09-08T13:12:15;7.93;;;7.18;;
19969;SDS011;10146;47.754;9.566;2023-09-08T13:14:41;7.20;;;6.60;;
19969;SDS011;10146;47.754;9.566;2023-09-08T13:17:08;7.32;;;6.63;;
19969;SDS011;10146;47.754;9.566;2023-09-08T13:19:35;7.78;;;6.85;;
19969;SDS011;10146;47.754;9.566;2023-09-08T13:22:02;8.13;;;7.38;;
19969;SDS011;10146;47.754;9.566;2023-09-08T13:24:29;6.97;;;6.47;;
19969;SDS011;10146;47.754;9.566;2023-09-08T13:26:54;7.50;;;6.80;;
19969;SDS011;10146;47.754;9.566;2023-09-08T13:29:20;7.72;;;7.03;;
19969;SDS011;10146;47.754;9.566;2023-09-08T13:31:45;6.70;;;6.20;;
19969;SDS011;10146;47.754;9.566;2023-09-08T13:34:11;8.23;;;7.13;;
19969;SDS011;10146;47.754;9.566;2023-09-08T13:36:36;7.28;;;6.45;;
19969;SDS011;10146;47.754;9.566;2023-09-08T13:39:02;7.45;;;6.78;;
19969;SDS011;10146;47.754;9.566;2023-09-08T13:44:24;7.10;;;6.55;;
19969;SDS011;10146;47.754;9.566;2023-09-08T13:46:50;7.63;;;7.00;;
19969;SDS011;10146;47.754;9.566;2023-09-08T13:49:16;9.68;;;6.38;;
19969;SDS011;10146;47.754;9.566;2023-09-08T13:51:43;7.00;;;6.40;;
19969;SDS011;10146;47.754;9.566;2023-09-08T13:54:09;7.32;;;6.30;;
19969;SDS011;10146;47.754;9.566;2023-09-08T13:56:35;6.88;;;6.28;;
19969;SDS011;10146;47.754;9.566;2023-09-08T13:59:03;6.90;;;6.13;;
19969;SDS011;10146;47.754;9.566;2023-09-08T14:01:28;7.65;;;6.45;;
19969;SDS011;10146;47.754;9.566;2023-09-08T14:03:57;6.70;;;6.03;;
19969;SDS011;10146;47.754;9.566;2023-09-08T14:06:23;6.75;;;6.18;;
19969;SDS011;10146;47.754;9.566;2023-09-08T14:08:49;7.57;;;5.90;;
19969;SDS011;10146;47.754;9.566;2023-09-08T14:11:15;7.38;;;6.63;;
19969;SDS011;10146;47.754;9.566;2023-09-08T14:13:40;8.75;;;6.32;;
19969;SDS011;10146;47.754;9.566;2023-09-08T14:16:06;6.78;;;6.18;;
19969;SDS011;10146;47.754;9.566;2023-09-08T14:18:31;6.15;;;5.65;;
19969;SDS011;10146;47.754;9.566;2023-09-08T14:20:58;6.47;;;5.97;;
19969;SDS011;10146;47.754;9.566;2023-09-08T14:23:23;6.88;;;6.10;;
19969;SDS011;10146;47.754;9.566;2023-09-08T14:25:49;6.00;;;5.55;;
19969;SDS011;10146;47.754;9.566;2023-09-08T14:28:14;7.68;;;6.40;;
19969;SDS011;10146;47.754;9.566;2023-09-08T14:30:40;6.97;;;6.30;;
19969;SDS011;10146;47.754;9.566;2023-09-08T14:33:06;8.18;;;6.18;;
19969;SDS011;10146;47.754;9.566;2023-09-08T14:35:32;7.15;;;5.78;;
19969;SDS011;10146;47.754;9.566;2023-09-08T14:37:58;8.18;;;6.40;;